Time;durP1;ratioP1;P1;durP2;ratioP2;P2;SDS_P1;SDS_P2;PMS_P1;PMS_P2;Temp;Humidity;BMP_temperature;BMP_pressure;BME280_temperature;BME280_humidity;BME280_pressure;Samples;Min_cycle;Max_cycle;Signal;HPM_P1;HPM_P2
2024/02/26 00:00:34;;;;;;;2.63;2.03;;;;;;;7.68;91.48;99656.13;5095765;28;20144;-68
2024/02/26 00:03:00;;;;;;;3.80;2.28;;;;;;;7.58;91.71;99661.28;5094684;28;20029;-69
2024/02/26 00:05:26;;;;;;;4.50;2.22;;;;;;;7.54;91.90;99655.09;5095061;28;20399;-69
2024/02/26 00:07:51;;;;;;;4.18;2.78;;;;;;;7.60;91.97;99665.19;5094929;28;20027;-70
2024/02/26 00:10:17;;;;;;;4.05;1.95;;;;;;;7.55;91.85;99659.34;5096989;28;20048;-69
2024/02/26 00:12:42;;;;;;;2.90;2.25;;;;;;;7.52;91.62;99650.13;5095156;28;20047;-69
2024/02/26 00:15:08;;;;;;;3.10;1.45;;;;;;;7.56;91.46;99656.31;5076616;28;20172;-69
2024/02/26 00:17:34;;;;;;;5.25;2.35;;;;;;;7.53;91.83;99654.31;5091917;28;20040;-68
2024/02/26 00:20:00;;;;;;;4.68;2.25;;;;;;;7.51;91.43;99650.47;5094189;28;20047;-69
2024/02/26 00:22:26;;;;;;;1.88;1.58;;;;;;;7.52;90.89;99657.38;5097806;28;20035;-69
2024/02/26 00:24:51;;;;;;;6.35;2.15;;;;;;;7.46;91.10;99651.53;5094892;28;20042;-69
2024/02/26 00:27:17;;;;;;;4.20;2.30;;;;;;;7.44;90.87;99667.19;5094857;28;20046;-69
2024/02/26 00:29:42;;;;;;;3.35;2.22;;;;;;;7.43;90.51;99660.31;5093779;28;20036;-69
2024/02/26 00:32:08;;;;;;;2.47;2.05;;;;;;;7.39;90.28;99653.34;5096694;28;20508;-69
2024/02/26 00:34:33;;;;;;;7.72;2.20;;;;;;;7.32;90.37;99649.41;5094897;28;20020;-69
2024/02/26 00:36:59;;;;;;;2.45;1.63;;;;;;;7.38;89.55;99649.09;5093209;28;20491;-69
2024/02/26 00:39:24;;;;;;;5.80;1.83;;;;;;;7.27;89.70;99651.63;5094895;28;20042;-68
2024/02/26 00:41:51;;;;;;;5.10;1.98;;;;;;;7.29;89.63;99654.72;5094543;28;20134;-69
2024/02/26 00:44:17;;;;;;;3.00;1.80;;;;;;;7.20;89.31;99656.84;5095084;28;20465;-69
2024/02/26 00:46:42;;;;;;;3.30;1.90;;;;;;;7.17;89.90;99657.56;5089593;28;20032;-69
2024/02/26 00:49:08;;;;;;;3.88;1.58;;;;;;;7.14;90.09;99656.34;5093005;28;20504;-69
2024/02/26 00:51:33;;;;;;;3.22;1.45;;;;;;;6.99;89.91;99645.75;5089021;28;20047;-69
2024/02/26 00:53:59;;;;;;;3.95;1.98;;;;;;;6.94;90.81;99654.09;5093813;28;20043;-69
2024/02/26 00:56:24;;;;;;;3.53;1.85;;;;;;;7.00;90.55;99658.81;5099394;28;20096;-69
2024/02/26 00:58:50;;;;;;;3.17;2.22;;;;;;;7.01;90.54;99657.66;5093435;28;20060;-69
2024/02/26 01:01:15;;;;;;;3.25;1.85;;;;;;;6.97;90.80;99659.50;5096366;28;20028;-69
2024/02/26 01:03:41;;;;;;;4.05;2.08;;;;;;;6.98;91.12;99655.69;5092004;28;20118;-68
2024/02/26 01:06:06;;;;;;;2.30;1.95;;;;;;;6.90;90.83;99656.69;5096274;28;20059;-69
2024/02/26 01:08:31;;;;;;;2.10;1.17;;;;;;;6.93;90.98;99653.31;5094320;28;20499;-69
2024/02/26 01:10:57;;;;;;;2.53;1.80;;;;;;;6.88;90.67;99653.59;5090449;28;20039;-69
2024/02/26 01:13:22;;;;;;;2.38;1.15;;;;;;;6.83;89.96;99661.91;5096750;28;20063;-69
2024/02/26 01:15:48;;;;;;;2.08;1.50;;;;;;;6.90;90.60;99653.25;5091408;28;20110;-69
2024/02/26 01:18:13;;;;;;;1.95;1.10;;;;;;;6.81;90.50;99656.16;5090677;28;20078;-68
2024/02/26 01:20:39;;;;;;;3.00;1.50;;;;;;;6.82;91.08;99656.91;5112527;27;20142;-69
2024/02/26 01:23:04;;;;;;;1.33;1.23;;;;;;;6.90;90.31;99662.06;5095398;28;20044;-69
2024/02/26 01:25:30;;;;;;;4.32;1.60;;;;;;;6.92;89.83;99665.16;5097781;28;20032;-69
2024/02/26 01:27:55;;;;;;;2.63;1.65;;;;;;;6.83;89.70;99658.47;5091902;28;20042;-68
2024/02/26 01:30:21;;;;;;;2.78;1.83;;;;;;;6.77;89.51;99659.88;5077985;28;20115;-69
2024/02/26 01:32:46;;;;;;;2.88;1.63;;;;;;;6.77;90.05;99663.34;5092869;28;20023;-69
2024/02/26 01:35:12;;;;;;;1.50;1.10;;;;;;;6.74;90.04;99660.56;5089956;28;20520;-69
2024/02/26 01:37:38;;;;;;;1.10;1.05;;;;;;;6.69;89.29;99666.22;5096785;28;20024;-69
2024/02/26 01:40:05;;;;;;;2.97;1.70;;;;;;;6.67;89.47;99660.44;5095585;28;20106;-69
2024/02/26 01:42:32;;;;;;;2.80;2.03;;;;;;;6.64;89.59;99661.91;5097814;28;20522;-69
2024/02/26 01:44:57;;;;;;;1.23;1.13;;;;;;;6.64;89.05;99655.81;5096007;28;20122;-69
2024/02/26 01:47:23;;;;;;;1.25;0.90;;;;;;;6.64;88.92;99653.13;5090873;28;20118;-69
2024/02/26 01:49:49;;;;;;;2.08;1.77;;;;;;;6.61;89.05;99656.50;5095245;28;20020;-69
2024/02/26 01:52:15;;;;;;;1.80;1.15;;;;;;;6.56;88.85;99654.91;5094950;28;20031;-69
2024/02/26 01:54:42;;;;;;;1.98;1.30;;;;;;;6.55;88.83;99668.59;5096668;28;20023;-69
2024/02/26 01:57:08;;;;;;;1.58;1.15;;;;;;;6.53;88.64;99665.50;5097148;28;20511;-69
2024/02/26 01:59:34;;;;;;;1.38;1.00;;;;;;;6.46;88.86;99671.50;5094681;28;20019;-69
2024/02/26 02:02:03;;;;;;;1.77;1.30;;;;;;;6.46;89.12;99662.69;5093379;28;20115;-69
2024/02/26 02:04:29;;;;;;;2.13;1.48;;;;;;;6.46;88.91;99671.50;5094219;28;20062;-69
2024/02/26 02:06:57;;;;;;;2.38;1.70;;;;;;;6.41;88.86;99669.09;5095064;28;20047;-69
2024/02/26 02:09:22;;;;;;;1.20;0.85;;;;;;;6.44;88.50;99665.72;5125059;27;20102;-69
2024/02/26 02:11:48;;;;;;;2.38;1.35;;;;;;;6.44;87.75;99665.72;5095521;28;20477;-69
2024/02/26 02:14:14;;;;;;;1.90;1.38;;;;;;;6.37;88.25;99668.25;5091816;28;20077;-70
2024/02/26 02:16:40;;;;;;;1.63;1.45;;;;;;;6.37;88.14;99662.91;5092805;28;20127;-69
2024/02/26 02:19:08;;;;;;;1.30;1.13;;;;;;;6.35;88.35;99659.78;5093518;28;20165;-69
2024/02/26 02:21:33;;;;;;;2.05;1.38;;;;;;;6.37;87.84;99652.19;5092235;28;20032;-69
2024/02/26 02:23:59;;;;;;;2.60;1.30;;;;;;;6.37;87.79;99660.22;5091965;28;20134;-69
2024/02/26 02:26:24;;;;;;;2.00;1.30;;;;;;;6.29;88.20;99672.66;5097278;28;20092;-69
2024/02/26 02:28:50;;;;;;;1.98;1.67;;;;;;;6.30;87.38;99673.44;5094474;28;20042;-69
2024/02/26 02:31:16;;;;;;;1.75;1.27;;;;;;;6.23;88.73;99679.41;5091185;28;20051;-69
2024/02/26 02:33:42;;;;;;;4.32;1.27;;;;;;;6.21;88.50;99670.22;5097031;28;20034;-69
2024/02/26 02:36:09;;;;;;;1.58;1.33;;;;;;;6.17;88.81;99666.69;5090281;28;20094;-69
2024/02/26 02:38:36;;;;;;;1.33;1.08;;;;;;;6.24;88.64;99669.50;5094519;28;20126;-69
2024/02/26 02:41:02;;;;;;;1.77;1.27;;;;;;;6.23;88.10;99665.28;5089741;28;20135;-71
2024/02/26 02:43:27;;;;;;;2.63;1.50;;;;;;;6.22;88.62;99669.06;5092710;28;20580;-69
2024/02/26 02:45:52;;;;;;;2.53;1.70;;;;;;;6.13;88.35;99668.50;5092367;28;20041;-69
2024/02/26 02:48:18;;;;;;;2.38;1.40;;;;;;;6.14;89.14;99676.16;5091197;28;20404;-69
2024/02/26 02:50:43;;;;;;;3.05;1.75;;;;;;;6.05;89.51;99682.81;5093070;28;20386;-69
2024/02/26 02:53:10;;;;;;;1.40;1.25;;;;;;;6.09;89.79;99671.09;5093605;28;20042;-69
2024/02/26 02:55:35;;;;;;;2.65;1.80;;;;;;;6.10;89.89;99674.53;5091536;28;20036;-69
2024/02/26 02:58:01;;;;;;;2.70;1.30;;;;;;;6.09;88.68;99670.31;5090979;28;20044;-69
2024/02/26 03:00:26;;;;;;;3.28;1.23;;;;;;;6.05;89.09;99682.81;5092181;28;20044;-69
2024/02/26 03:02:51;;;;;;;1.75;1.30;;;;;;;6.00;88.45;99670.50;5091611;28;20023;-69
2024/02/26 03:05:17;;;;;;;2.63;1.67;;;;;;;5.98;88.57;99675.41;5087297;28;20027;-69
2024/02/26 03:07:42;;;;;;;1.95;1.48;;;;;;;6.02;88.22;99675.53;5090704;28;20620;-69
2024/02/26 03:10:08;;;;;;;3.13;1.60;;;;;;;5.96;88.09;99680.34;5092654;28;20032;-69
2024/02/26 03:12:34;;;;;;;2.70;1.83;;;;;;;5.96;88.79;99680.34;5091058;28;20439;-69
2024/02/26 03:15:02;;;;;;;3.33;1.85;;;;;;;5.94;88.79;99687.91;5089698;28;20027;-69
2024/02/26 03:17:28;;;;;;;2.75;1.45;;;;;;;5.95;88.68;99684.16;5091796;28;20043;-69
2024/02/26 03:19:54;;;;;;;2.83;1.40;;;;;;;5.91;88.91;99683.28;5085185;28;20028;-69
2024/02/26 03:22:20;;;;;;;3.25;1.10;;;;;;;5.91;88.82;99677.94;5087544;28;20050;-69
2024/02/26 03:24:46;;;;;;;5.03;2.15;;;;;;;5.90;88.59;99680.97;5095005;28;20498;-69
2024/02/26 03:27:11;;;;;;;1.80;1.55;;;;;;;5.89;88.70;99682.06;5091560;28;20035;-69
2024/02/26 03:29:38;;;;;;;1.05;0.98;;;;;;;5.93;88.02;99686.38;5086757;28;20055;-69
2024/02/26 03:32:04;;;;;;;2.67;1.83;;;;;;;5.84;88.62;99693.81;5095414;28;20531;-69
2024/02/26 03:34:30;;;;;;;1.95;1.30;;;;;;;5.84;88.48;99682.34;5089287;28;20036;-69
2024/02/26 03:36:56;;;;;;;2.63;1.50;;;;;;;5.78;88.57;99695.16;5122174;27;20028;-69
2024/02/26 03:39:22;;;;;;;2.50;1.55;;;;;;;5.71;88.57;99680.88;5093648;28;20105;-69
2024/02/26 03:41:48;;;;;;;2.58;1.52;;;;;;;5.76;88.89;99693.97;5088817;28;20555;-69
2024/02/26 03:44:14;;;;;;;4.63;2.03;;;;;;;5.74;88.42;99699.66;5091105;28;20554;-69
2024/02/26 03:46:42;;;;;;;2.08;1.42;;;;;;;5.75;88.51;99703.09;5086558;28;20757;-69
2024/02/26 03:49:08;;;;;;;2.17;1.80;;;;;;;5.75;88.81;99695.84;5086707;28;20033;-69
2024/02/26 03:51:33;;;;;;;3.70;1.92;;;;;;;5.75;88.53;99703.84;5092693;28;20110;-69
2024/02/26 03:53:59;;;;;;;2.47;1.25;;;;;;;5.81;88.39;99712.38;5094574;28;20019;-69
2024/02/26 03:56:25;;;;;;;2.08;1.77;;;;;;;5.77;87.92;99714.22;5093214;28;20027;-69
2024/02/26 03:58:50;;;;;;;1.40;1.30;;;;;;;5.74;87.83;99712.22;5090639;28;20044;-68
2024/02/26 04:01:16;;;;;;;1.20;1.10;;;;;;;5.77;87.67;99720.31;5091597;28;20028;-69
2024/02/26 04:03:41;;;;;;;1.38;1.08;;;;;;;5.76;87.68;99734.81;5089246;28;20037;-70
2024/02/26 04:06:10;;;;;;;1.95;1.27;;;;;;;5.71;88.48;99734.28;5087985;28;20106;-69
2024/02/26 04:08:37;;;;;;;2.90;1.73;;;;;;;5.67;88.79;99736.84;5086841;28;20047;-69
2024/02/26 04:11:07;;;;;;;3.28;1.75;;;;;;;5.59;88.53;99735.16;5091392;28;20039;-69
2024/02/26 04:13:38;;;;;;;2.10;1.33;;;;;;;5.59;88.63;99748.50;5125173;27;20112;-71
2024/02/26 04:16:06;;;;;;;1.33;1.23;;;;;;;5.62;88.53;99742.47;5097504;28;20047;-69
2024/02/26 04:18:34;;;;;;;1.77;1.58;;;;;;;5.63;88.01;99741.34;5092668;28;20107;-69
2024/02/26 04:21:00;;;;;;;1.38;1.10;;;;;;;5.66;88.26;99758.56;5092472;28;20401;-69
2024/02/26 04:23:25;;;;;;;1.35;1.00;;;;;;;5.72;87.51;99759.84;5078150;28;20035;-69
2024/02/26 04:25:53;;;;;;;2.45;1.63;;;;;;;5.67;87.07;99771.56;5092566;28;20031;-69
2024/02/26 04:28:20;;;;;;;2.22;1.23;;;;;;;5.62;86.94;99765.72;5095166;28;20488;-69
2024/02/26 04:30:46;;;;;;;1.65;1.20;;;;;;;5.55;87.57;99771.66;5096821;28;20035;-69
2024/02/26 04:33:12;;;;;;;2.40;1.42;;;;;;;5.52;87.58;99779.59;5092620;28;20137;-68
2024/02/26 04:35:37;;;;;;;3.25;1.55;;;;;;;5.50;87.64;99783.34;5089872;28;20136;-69
2024/02/26 04:38:05;;;;;;;3.53;1.88;;;;;;;5.45;87.78;99794.28;5096954;28;20028;-69
2024/02/26 04:40:31;;;;;;;5.25;2.00;;;;;;;5.45;86.95;99807.63;5075690;28;20578;-69
2024/02/26 04:42:57;;;;;;;1.42;1.17;;;;;;;5.41;87.29;99819.34;5092493;28;20050;-69
2024/02/26 04:45:22;;;;;;;1.10;1.00;;;;;;;5.40;87.81;99802.53;5086284;28;20044;-69
2024/02/26 04:47:48;;;;;;;1.42;1.15;;;;;;;5.35;88.16;99808.13;5088100;28;20031;-68
2024/02/26 04:50:13;;;;;;;4.28;1.63;;;;;;;5.40;88.26;99810.53;5092402;28;20020;-69
2024/02/26 04:52:38;;;;;;;1.85;1.30;;;;;;;5.40;88.23;99812.47;5095385;28;20397;-68
2024/02/26 04:55:04;;;;;;;1.17;1.08;;;;;;;5.35;87.75;99810.78;5092506;28;20092;-69
2024/02/26 04:57:29;;;;;;;1.48;1.38;;;;;;;5.32;87.81;99805.38;5092825;28;20035;-74
2024/02/26 04:59:55;;;;;;;1.73;1.10;;;;;;;5.32;88.65;99808.78;5095632;28;20173;-68
2024/02/26 05:02:20;;;;;;;2.58;1.38;;;;;;;5.40;88.04;99813.22;5090939;28;20039;-69
2024/02/26 05:04:46;;;;;;;3.72;1.55;;;;;;;5.40;87.66;99817.78;5087888;28;20792;-69
2024/02/26 05:07:12;;;;;;;2.15;1.55;;;;;;;5.42;86.91;99824.31;5090844;28;20408;-69
2024/02/26 05:09:37;;;;;;;2.35;1.92;;;;;;;5.34;87.36;99816.47;5095075;28;20118;-69
2024/02/26 05:12:03;;;;;;;1.58;1.42;;;;;;;5.31;87.96;99814.47;5086608;28;20176;-69
2024/02/26 05:14:29;;;;;;;3.17;1.90;;;;;;;5.30;88.17;99818.28;5091897;28;20028;-68
2024/02/26 05:16:54;;;;;;;3.38;1.52;;;;;;;5.33;88.31;99823.69;5075652;28;20650;-68
2024/02/26 05:19:19;;;;;;;1.50;1.40;;;;;;;5.32;87.86;99816.78;5090189;28;20174;-68
2024/02/26 05:21:47;;;;;;;3.30;1.60;;;;;;;5.27;88.34;99829.63;5093858;28;20481;-68
2024/02/26 05:24:13;;;;;;;3.13;2.13;;;;;;;5.29;88.67;99822.03;5087479;28;20040;-68
2024/02/26 05:26:38;;;;;;;2.92;2.17;;;;;;;5.26;88.13;99820.84;5087896;28;20082;-68
2024/02/26 05:29:03;;;;;;;3.78;1.85;;;;;;;5.33;88.24;99818.38;5087750;28;20126;-68
2024/02/26 05:31:29;;;;;;;4.93;2.13;;;;;;;5.34;87.55;99819.91;5090899;28;20073;-68
2024/02/26 05:33:54;;;;;;;2.33;1.80;;;;;;;5.28;88.11;99829.25;5094090;28;20077;-68
2024/02/26 05:36:22;;;;;;;2.00;1.75;;;;;;;5.29;88.28;99830.84;5089956;28;20039;-68
2024/02/26 05:38:48;;;;;;;2.20;1.75;;;;;;;5.32;88.24;99832.06;5088583;28;20094;-68
2024/02/26 05:41:22;;;;;;;4.13;2.47;;;;;;;5.27;88.82;99838.41;5087486;28;20040;-68
2024/02/26 05:43:49;;;;;;;6.63;2.85;;;;;;;5.30;89.02;99834.28;5084582;28;20039;-68
2024/02/26 05:46:17;;;;;;;5.32;3.50;;;;;;;5.28;89.06;99842.63;5084418;28;20134;-68
2024/02/26 05:48:42;;;;;;;4.32;2.85;;;;;;;5.29;89.54;99838.84;5085740;28;20033;-68
2024/02/26 05:51:09;;;;;;;1.80;1.70;;;;;;;5.30;88.62;99842.28;5088855;28;20038;-68
2024/02/26 05:53:34;;;;;;;3.33;2.50;;;;;;;5.28;89.59;99839.94;5089719;28;20377;-68
2024/02/26 05:56:00;;;;;;;7.43;2.47;;;;;;;5.31;89.01;99843.84;5089558;28;20031;-68
2024/02/26 05:58:25;;;;;;;2.20;1.67;;;;;;;5.34;88.71;99843.94;5088548;28;20043;-68
2024/02/26 06:00:50;;;;;;;1.83;1.63;;;;;;;5.29;88.97;99848.72;5087866;28;20040;-68
2024/02/26 06:03:19;;;;;;;2.17;1.35;;;;;;;5.31;89.04;99841.94;5086998;28;20027;-68
2024/02/26 06:05:44;;;;;;;2.05;1.58;;;;;;;5.40;89.14;99857.84;5085631;28;20051;-68
2024/02/26 06:08:09;;;;;;;2.25;1.50;;;;;;;5.44;88.92;99858.69;5092026;28;20117;-68
2024/02/26 06:10:35;;;;;;;1.10;1.02;;;;;;;5.41;88.42;99862.81;5084944;28;20052;-68
2024/02/26 06:13:00;;;;;;;2.08;1.40;;;;;;;5.39;88.91;99862.38;5090808;28;20036;-68
2024/02/26 06:15:26;;;;;;;4.70;2.08;;;;;;;5.39;88.71;99867.72;5085779;28;20035;-68
2024/02/26 06:17:51;;;;;;;2.05;1.73;;;;;;;5.39;88.80;99864.28;5085501;28;20028;-68
2024/02/26 06:20:17;;;;;;;2.17;1.73;;;;;;;5.43;88.92;99865.94;5087816;28;20071;-68
2024/02/26 06:22:42;;;;;;;1.73;1.40;;;;;;;5.44;88.97;99859.47;5085747;28;20052;-68
2024/02/26 06:25:08;;;;;;;2.33;1.95;;;;;;;5.45;88.50;99866.38;5094421;28;20103;-68
2024/02/26 06:27:34;;;;;;;2.85;1.95;;;;;;;5.43;89.00;99867.81;5089866;28;20073;-68
2024/02/26 06:30:00;;;;;;;2.00;1.75;;;;;;;5.42;89.38;99879.59;5086207;28;20016;-68
2024/02/26 06:32:27;;;;;;;5.15;1.90;;;;;;;5.44;89.62;99875.47;5090935;28;20032;-68
2024/02/26 06:34:53;;;;;;;3.40;2.05;;;;;;;5.36;89.72;99875.63;5092469;28;20032;-68
2024/02/26 06:37:18;;;;;;;2.88;2.20;;;;;;;5.35;89.96;99874.84;5093072;28;20401;-68
2024/02/26 06:39:44;;;;;;;2.85;1.85;;;;;;;5.29;90.40;99875.41;5086401;28;20558;-68
2024/02/26 06:42:09;;;;;;;3.83;2.28;;;;;;;5.11;90.81;99860.81;5088618;28;20067;-68
2024/02/26 06:44:35;;;;;;;3.63;2.08;;;;;;;5.16;91.65;99872.03;5088713;28;20071;-68
2024/02/26 06:47:00;;;;;;;2.80;2.33;;;;;;;5.06;92.71;99869.81;5082174;28;20024;-68
2024/02/26 06:49:26;;;;;;;1.80;1.38;;;;;;;5.14;92.08;99871.59;5088338;28;20446;-68
2024/02/26 06:51:52;;;;;;;2.72;2.13;;;;;;;5.21;92.05;99879.00;5090418;28;20051;-68
2024/02/26 06:54:17;;;;;;;2.33;1.85;;;;;;;5.06;92.93;99885.81;5086657;28;20074;-68
2024/02/26 06:56:43;;;;;;;3.38;1.98;;;;;;;5.32;92.42;99896.88;5086264;28;20081;-68
2024/02/26 06:59:08;;;;;;;2.25;1.58;;;;;;;5.44;91.99;99901.38;5085667;28;20033;-68
2024/02/26 07:01:34;;;;;;;3.35;1.77;;;;;;;5.39;92.19;99901.63;5088204;28;20043;-68
2024/02/26 07:04:00;;;;;;;2.80;1.88;;;;;;;5.37;92.71;99907.31;5089626;28;20172;-68
2024/02/26 07:06:27;;;;;;;3.88;2.13;;;;;;;5.50;92.70;99900.81;5088669;28;20558;-68
2024/02/26 07:08:52;;;;;;;3.38;2.45;;;;;;;5.58;92.89;99899.13;5070389;28;20117;-68
2024/02/26 07:11:19;;;;;;;6.22;1.98;;;;;;;5.54;92.93;99911.59;5085876;28;20505;-68
2024/02/26 07:13:45;;;;;;;2.58;1.90;;;;;;;5.55;92.72;99904.38;5081992;28;20028;-68
2024/02/26 07:16:11;;;;;;;3.42;2.00;;;;;;;5.52;93.63;99911.16;5071881;28;20449;-68
2024/02/26 07:18:37;;;;;;;3.63;2.05;;;;;;;5.57;93.24;99908.25;5088205;28;20118;-68
2024/02/26 07:21:03;;;;;;;4.25;1.90;;;;;;;5.54;93.42;99914.28;5089051;28;20118;-68
2024/02/26 07:23:29;;;;;;;2.67;1.67;;;;;;;5.58;94.11;99919.69;5085758;28;20039;-68
2024/02/26 07:25:54;;;;;;;2.05;1.60;;;;;;;5.69;94.09;99915.44;5107566;28;20024;-68
2024/02/26 07:28:20;;;;;;;2.25;1.70;;;;;;;5.82;93.31;99930.31;5089504;28;20032;-68
2024/02/26 07:30:45;;;;;;;2.85;1.63;;;;;;;5.79;93.15;99925.66;5071243;28;20032;-67
2024/02/26 07:33:11;;;;;;;2.20;2.00;;;;;;;5.68;93.76;99935.25;5088938;28;20092;-68
2024/02/26 07:35:38;;;;;;;2.05;1.75;;;;;;;5.73;93.55;99927.00;5086358;28;20051;-68
2024/02/26 07:38:04;;;;;;;3.95;1.88;;;;;;;5.78;94.16;99929.44;5090824;28;20081;-68
2024/02/26 07:40:30;;;;;;;2.97;1.92;;;;;;;5.83;93.61;99930.00;5092561;28;20036;-68
2024/02/26 07:42:55;;;;;;;1.88;1.63;;;;;;;5.95;93.69;99939.84;5119037;27;20020;-68
2024/02/26 07:45:21;;;;;;;4.68;1.60;;;;;;;5.94;94.29;99949.75;5090558;28;20121;-68
2024/02/26 07:47:47;;;;;;;3.40;2.10;;;;;;;6.05;93.59;99945.47;5090702;28;20170;-68
2024/02/26 07:50:12;;;;;;;2.72;1.77;;;;;;;6.08;93.80;99952.03;5092618;28;20031;-68
2024/02/26 07:52:38;;;;;;;4.35;1.88;;;;;;;6.13;93.74;99957.13;5088321;28;20508;-68
2024/02/26 07:55:04;;;;;;;2.47;1.75;;;;;;;6.15;93.90;99962.91;5092322;28;20033;-68
2024/02/26 07:57:31;;;;;;;4.15;1.77;;;;;;;6.10;93.91;99963.94;5090317;28;20120;-68
2024/02/26 07:59:56;;;;;;;11.60;2.45;;;;;;;6.23;93.54;99972.69;5092233;28;20031;-68
2024/02/26 08:02:22;;;;;;;2.28;1.45;;;;;;;6.27;93.57;99968.22;5091515;28;20039;-68
2024/02/26 08:04:47;;;;;;;4.60;1.90;;;;;;;6.26;94.05;99977.34;5089837;28;20154;-68
2024/02/26 08:07:13;;;;;;;4.50;2.88;;;;;;;6.35;93.77;99973.38;5088727;28;20389;-68
2024/02/26 08:09:38;;;;;;;2.72;1.83;;;;;;;6.40;93.04;99972.34;5089964;28;20093;-68
2024/02/26 08:12:04;;;;;;;4.50;2.47;;;;;;;6.44;93.53;99978.56;5121307;27;20032;-68
2024/02/26 08:14:29;;;;;;;6.25;1.88;;;;;;;6.40;93.78;99983.06;5092750;28;20036;-68
2024/02/26 08:16:55;;;;;;;4.57;2.33;;;;;;;6.45;94.14;99979.34;5081530;28;20062;-68
2024/02/26 08:19:20;;;;;;;5.43;2.10;;;;;;;6.54;93.70;99980.75;5085058;28;20037;-68
2024/02/26 08:21:46;;;;;;;2.33;1.63;;;;;;;6.63;93.87;99986.69;5098716;27;20025;-68
2024/02/26 08:24:11;;;;;;;3.88;2.35;;;;;;;6.73;93.12;99980.06;5094824;28;20416;-68
2024/02/26 08:26:37;;;;;;;4.40;2.53;;;;;;;6.72;93.16;99987.28;5088940;28;20051;-68
2024/02/26 08:29:02;;;;;;;2.97;2.03;;;;;;;6.75;93.41;99991.19;5092717;28;20066;-68
2024/02/26 08:31:28;;;;;;;4.28;1.90;;;;;;;6.73;93.84;99988.88;5093634;28;20031;-68
2024/02/26 08:33:53;;;;;;;4.68;2.88;;;;;;;6.82;93.92;99976.09;5088016;28;20542;-68
2024/02/26 08:36:19;;;;;;;4.10;2.17;;;;;;;6.81;94.30;99989.81;5124918;27;20040;-67
2024/02/26 08:38:44;;;;;;;2.78;1.90;;;;;;;6.83;94.92;99992.91;5092381;28;20040;-68
2024/02/26 08:41:10;;;;;;;2.60;1.80;;;;;;;6.81;94.32;99995.94;5092493;28;20036;-68
2024/02/26 08:43:35;;;;;;;2.88;1.70;;;;;;;6.88;94.37;99993.44;5089625;28;20081;-68
2024/02/26 08:46:01;;;;;;;4.85;2.60;;;;;;;6.93;94.01;99995.84;5090414;28;20860;-68
2024/02/26 08:48:26;;;;;;;2.92;1.48;;;;;;;6.96;94.13;100000.50;5087221;28;20060;-68
2024/02/26 08:50:52;;;;;;;2.83;2.05;;;;;;;7.04;94.19;100006.81;5093878;28;20035;-68
2024/02/26 08:53:17;;;;;;;3.47;1.92;;;;;;;7.10;93.57;100006.19;5087394;28;20382;-68
2024/02/26 08:55:43;;;;;;;4.43;2.58;;;;;;;7.19;93.80;100009.47;5093935;28;20114;-67
2024/02/26 08:58:08;;;;;;;5.45;1.65;;;;;;;7.20;93.82;100011.00;5088399;28;20034;-68
2024/02/26 09:00:34;;;;;;;4.03;1.90;;;;;;;7.23;94.01;100013.00;5089699;28;20036;-68
2024/02/26 09:02:59;;;;;;;3.00;2.10;;;;;;;7.22;93.58;100016.78;5088411;28;20036;-68
2024/02/26 09:05:24;;;;;;;6.78;2.00;;;;;;;7.22;93.46;100024.81;5088766;28;20024;-68
2024/02/26 09:07:51;;;;;;;2.78;2.00;;;;;;;7.28;93.85;100023.44;5090149;28;20826;-68
2024/02/26 09:10:17;;;;;;;3.80;2.30;;;;;;;7.43;93.55;100018.41;5090171;28;20024;-68
2024/02/26 09:12:43;;;;;;;5.55;2.45;;;;;;;7.45;93.83;100016.94;5088106;28;20537;-68
2024/02/26 09:15:08;;;;;;;2.55;1.85;;;;;;;7.50;94.13;100024.69;5086464;28;20412;-68
2024/02/26 09:17:34;;;;;;;2.15;1.42;;;;;;;7.59;94.66;100027.19;5088764;28;20063;-68
2024/02/26 09:19:59;;;;;;;3.08;1.67;;;;;;;7.65;94.56;100025.78;5086706;28;20115;-68
2024/02/26 09:22:25;;;;;;;3.15;1.98;;;;;;;7.71;94.67;100024.38;5087718;28;20023;-68
2024/02/26 09:24:52;;;;;;;2.65;1.52;;;;;;;7.78;94.40;100029.91;5091643;28;20034;-68
2024/02/26 09:27:17;;;;;;;3.08;1.88;;;;;;;7.77;94.38;100028.34;5087966;28;20054;-68
2024/02/26 09:29:43;;;;;;;3.72;1.80;;;;;;;7.85;94.60;100030.81;5087515;28;20032;-68
2024/02/26 09:32:08;;;;;;;1.92;1.60;;;;;;;7.74;94.72;100039.78;5085386;28;20024;-68
2024/02/26 09:34:34;;;;;;;4.43;1.77;;;;;;;7.85;94.50;100046.91;5095889;28;20082;-68
2024/02/26 09:37:00;;;;;;;4.47;2.00;;;;;;;7.88;94.71;100032.78;5090032;28;20093;-68
2024/02/26 09:39:27;;;;;;;2.55;1.83;;;;;;;7.94;93.79;100038.66;5126149;27;20055;-68
2024/02/26 09:41:53;;;;;;;3.95;2.08;;;;;;;8.02;94.18;100049.16;5089035;28;20059;-68
2024/02/26 09:44:23;;;;;;;2.95;2.20;;;;;;;8.07;93.95;100046.19;5091001;28;20078;-68
2024/02/26 09:46:51;;;;;;;2.90;1.67;;;;;;;8.12;94.34;100047.84;5088849;28;20052;-68
2024/02/26 09:49:19;;;;;;;2.80;1.90;;;;;;;8.16;94.06;100052.16;5095135;28;20036;-68
2024/02/26 09:51:45;;;;;;;3.35;2.00;;;;;;;8.15;94.40;100049.78;5089388;28;20024;-68
2024/02/26 09:54:13;;;;;;;3.15;2.03;;;;;;;8.17;94.76;100050.22;5073264;28;20442;-68
2024/02/26 09:56:43;;;;;;;3.45;2.22;;;;;;;8.25;94.92;100051.16;5081385;28;20055;-68
2024/02/26 09:59:13;;;;;;;4.40;2.42;;;;;;;8.25;94.57;100043.91;5076777;28;20051;-69
2024/02/26 10:01:41;;;;;;;4.18;2.13;;;;;;;8.20;94.67;100063.72;5078091;28;20031;-69
2024/02/26 10:04:09;;;;;;;4.30;2.08;;;;;;;8.22;94.83;100049.97;5085483;28;20114;-68
2024/02/26 10:06:36;;;;;;;2.40;1.95;;;;;;;8.30;95.19;100059.72;5090911;28;20035;-68
2024/02/26 10:09:06;;;;;;;1.95;1.58;;;;;;;8.38;95.20;100069.44;5091343;28;20533;-68
2024/02/26 10:11:32;;;;;;;4.00;2.15;;;;;;;8.43;95.05;100063.03;5089250;28;20028;-68
2024/02/26 10:13:57;;;;;;;3.85;2.13;;;;;;;8.35;95.24;100053.28;5089344;28;20023;-68
2024/02/26 10:16:25;;;;;;;3.63;2.30;;;;;;;8.39;95.13;100062.19;5090023;28;20039;-68
2024/02/26 10:18:52;;;;;;;2.78;2.03;;;;;;;8.51;95.04;100067.41;5088681;28;20020;-69
2024/02/26 10:21:22;;;;;;;5.32;2.75;;;;;;;8.63;94.54;100064.56;5085833;28;20457;-68
2024/02/26 10:23:50;;;;;;;3.60;1.90;;;;;;;8.59;94.07;100077.13;5085348;28;20110;-68
2024/02/26 10:26:15;;;;;;;4.63;2.35;;;;;;;8.54;94.38;100072.03;5085568;28;20052;-68
2024/02/26 10:28:42;;;;;;;4.72;2.50;;;;;;;8.55;94.03;100063.66;5089564;28;20512;-68
2024/02/26 10:31:09;;;;;;;3.80;2.13;;;;;;;8.52;94.62;100058.97;5091130;28;20024;-68
2024/02/26 10:33:37;;;;;;;4.78;2.55;;;;;;;8.60;94.79;100070.63;5087838;28;20059;-68
2024/02/26 10:36:05;;;;;;;4.65;2.42;;;;;;;8.70;94.83;100083.47;5091194;28;20130;-68
2024/02/26 10:38:31;;;;;;;6.25;3.35;;;;;;;8.72;94.77;100084.69;5085520;28;20123;-68
2024/02/26 10:40:57;;;;;;;6.03;2.67;;;;;;;8.74;94.40;100082.41;5089765;28;20060;-68
2024/02/26 10:43:22;;;;;;;5.40;3.28;;;;;;;8.87;94.42;100096.44;5089873;28;20060;-68
2024/02/26 10:45:48;;;;;;;4.88;2.55;;;;;;;8.89;94.60;100092.25;5086821;28;20035;-68
2024/02/26 10:48:14;;;;;;;6.68;3.22;;;;;;;8.92;94.30;100096.91;5085681;28;20523;-68
2024/02/26 10:50:40;;;;;;;5.00;2.47;;;;;;;9.06;94.13;100094.47;5085242;28;20055;-68
2024/02/26 10:53:15;;;;;;;5.72;3.13;;;;;;;8.87;93.75;100091.84;5089472;28;20430;-68
2024/02/26 10:55:42;;;;;;;5.50;3.33;;;;;;;8.76;94.30;100095.47;5087649;28;20052;-68
2024/02/26 10:58:08;;;;;;;4.65;3.15;;;;;;;8.99;94.51;100101.63;5087901;28;20024;-68
2024/02/26 11:00:36;;;;;;;6.60;3.35;;;;;;;9.10;93.91;100099.91;5090591;28;20074;-68
2024/02/26 11:03:03;;;;;;;4.38;3.20;;;;;;;9.16;93.72;100100.38;5093460;28;20028;-68
2024/02/26 11:05:29;;;;;;;6.43;3.30;;;;;;;9.20;93.59;100103.91;5083961;28;20396;-68
2024/02/26 11:07:55;;;;;;;10.35;2.95;;;;;;;9.22;93.86;100098.94;5089937;28;20028;-68
2024/02/26 11:10:22;;;;;;;5.70;3.10;;;;;;;9.32;93.19;100103.72;5090813;28;20063;-68
2024/02/26 11:12:49;;;;;;;5.18;3.00;;;;;;;9.37;93.34;100098.06;5085134;28;20117;-68
2024/02/26 11:15:16;;;;;;;7.25;3.08;;;;;;;9.45;93.15;100094.31;5083686;28;20036;-68
2024/02/26 11:17:42;;;;;;;6.38;3.03;;;;;;;9.45;93.12;100100.47;5094900;28;20020;-68
2024/02/26 11:20:12;;;;;;;6.38;2.55;;;;;;;9.50;93.52;100096.72;5088983;28;20066;-68
2024/02/26 11:22:38;;;;;;;7.80;2.70;;;;;;;9.19;93.46;100105.84;5083905;28;20032;-68
2024/02/26 11:25:04;;;;;;;5.05;3.00;;;;;;;9.43;93.30;100105.44;5092169;28;20374;-68
2024/02/26 11:27:36;;;;;;;7.32;2.30;;;;;;;9.62;92.65;100096.53;5086653;28;20352;-68
2024/02/26 11:30:05;;;;;;;9.18;2.60;;;;;;;9.70;92.27;100100.84;5086713;28;20040;-68
2024/02/26 11:32:31;;;;;;;7.93;2.67;;;;;;;9.76;91.40;100100.19;5085439;28;20036;-68